createdAt,value
2016-10-03T00:00:01.152Z,-49
2016-10-03T00:01:01.233Z,-50
2016-10-03T00:02:01.240Z,-53
2016-10-03T00:03:01.237Z,-50
2016-10-03T00:04:01.421Z,-50
2016-10-03T00:05:01.165Z,-49
2016-10-03T00:06:01.181Z,-52
2016-10-03T00:07:01.201Z,-53
2016-10-03T00:08:01.230Z,-50
2016-10-03T00:09:01.145Z,-53
2016-10-03T00:10:01.166Z,-50
2016-10-03T00:11:01.157Z,-50
2016-10-03T00:12:01.218Z,-51
2016-10-03T00:13:01.176Z,-51
2016-10-03T00:14:01.167Z,-50
2016-10-03T00:15:01.109Z,-47
2016-10-03T00:16:01.171Z,-50
2016-10-03T00:17:01.141Z,-48
2016-10-03T00:18:01.119Z,-49
2016-10-03T00:19:01.215Z,-50
2016-10-03T00:20:01.157Z,-50
2016-10-03T00:21:01.110Z,-48
2016-10-03T00:22:01.207Z,-49
2016-10-03T00:23:01.148Z,-49
2016-10-03T00:24:01.127Z,-49
2016-10-03T00:25:01.104Z,-49
2016-10-03T00:26:01.192Z,-50
2016-10-03T00:27:01.162Z,-49
2016-10-03T00:28:01.197Z,-48
2016-10-03T00:29:01.160Z,-50
2016-10-03T00:30:01.212Z,-52
2016-10-03T00:31:01.416Z,-52
2016-10-03T00:32:01.276Z,-50
2016-10-03T00:33:01.250Z,-48
2016-10-03T00:34:01.169Z,-49
2016-10-03T00:35:01.210Z,-49
2016-10-03T00:36:01.166Z,-48
2016-10-03T00:37:01.154Z,-48
2016-10-03T00:38:01.208Z,-50
2016-10-03T00:39:01.159Z,-50
2016-10-03T00:40:01.224Z,-48
2016-10-03T00:41:01.137Z,-49
2016-10-03T00:42:01.950Z,-49
2016-10-03T00:43:01.155Z,-49
2016-10-03T00:44:01.176Z,-49
2016-10-03T00:45:01.163Z,-46
2016-10-03T00:46:01.167Z,-49
2016-10-03T00:47:01.164Z,-49
2016-10-03T00:48:01.194Z,-50
2016-10-03T00:49:01.173Z,-51
2016-10-03T00:50:01.203Z,-53
2016-10-03T00:51:01.167Z,-51
2016-10-03T00:52:01.202Z,-51
2016-10-03T00:53:01.164Z,-51
2016-10-03T00:54:01.218Z,-52
2016-10-03T00:55:01.168Z,-53
2016-10-03T00:56:01.172Z,-50
2016-10-03T00:57:01.191Z,-50
2016-10-03T00:58:01.157Z,-50
2016-10-03T00:59:01.109Z,-50
2016-10-03T01:00:01.172Z,-48
2016-10-03T01:01:01.156Z,-49
2016-10-03T01:02:01.205Z,-49
2016-10-03T01:03:01.192Z,-49
2016-10-03T01:04:01.141Z,-48
2016-10-03T01:05:01.204Z,-49
2016-10-03T01:06:01.168Z,-49
2016-10-03T01:07:01.175Z,-49
2016-10-03T01:08:01.170Z,-49
2016-10-03T01:09:01.114Z,-49
2016-10-03T01:10:01.185Z,-49
2016-10-03T01:11:02.355Z,-51
2016-10-03T01:12:01.268Z,-51
2016-10-03T01:13:01.359Z,-47
2016-10-03T01:14:01.442Z,-48
2016-10-03T01:15:01.726Z,-51
2016-10-03T01:16:01.935Z,-49
2016-10-03T01:17:01.752Z,-50
2016-10-03T01:18:01.307Z,-51
2016-10-03T01:19:01.247Z,-50
2016-10-03T01:20:01.198Z,-48
2016-10-03T01:21:01.163Z,-49
2016-10-03T01:22:01.202Z,-51
2016-10-03T01:23:01.179Z,-52
2016-10-03T01:24:01.162Z,-50
2016-10-03T01:25:01.169Z,-51
2016-10-03T01:26:01.142Z,-51
2016-10-03T01:27:01.192Z,-50
2016-10-03T01:28:01.178Z,-51
2016-10-03T01:29:01.251Z,-50
2016-10-03T01:30:01.168Z,-50
2016-10-03T01:31:01.205Z,-51
2016-10-03T01:32:01.223Z,-50
2016-10-03T01:33:01.245Z,-51
2016-10-03T01:34:01.222Z,-50
2016-10-03T01:35:01.218Z,-51
2016-10-03T01:36:01.218Z,-50
2016-10-03T01:37:01.211Z,-50
2016-10-03T01:38:01.191Z,-50
2016-10-03T01:39:01.172Z,-50
2016-10-03T01:40:01.191Z,-49
2016-10-03T01:41:01.168Z,-50
2016-10-03T01:42:01.221Z,-50
2016-10-03T01:43:01.198Z,-50
2016-10-03T01:44:01.220Z,-50
2016-10-03T01:45:01.188Z,-50
2016-10-03T01:46:01.196Z,-50
2016-10-03T01:47:01.195Z,-48
2016-10-03T01:48:01.191Z,-50
2016-10-03T01:49:01.201Z,-50
2016-10-03T01:50:01.195Z,-49
2016-10-03T01:51:01.766Z,-51
2016-10-03T01:52:01.233Z,-51
2016-10-03T01:53:01.201Z,-50
2016-10-03T01:54:01.234Z,-50
2016-10-03T01:55:01.230Z,-50
2016-10-03T01:56:01.252Z,-50
2016-10-03T01:57:01.272Z,-50
2016-10-03T01:58:01.277Z,-51
2016-10-03T01:59:01.223Z,-50
2016-10-03T02:00:01.276Z,-50
2016-10-03T02:01:01.262Z,-49
2016-10-03T02:02:01.238Z,-49
2016-10-03T02:03:01.216Z,-52
2016-10-03T02:04:01.179Z,-50
2016-10-03T02:05:01.245Z,-52
2016-10-03T02:06:01.248Z,-51
2016-10-03T02:07:01.255Z,-51
2016-10-03T02:08:01.261Z,-51
2016-10-03T02:09:01.180Z,-51
2016-10-03T02:10:01.188Z,-51
2016-10-03T02:11:01.213Z,-51
2016-10-03T02:12:01.248Z,-51
2016-10-03T02:13:01.198Z,-51
2016-10-03T02:14:01.236Z,-50
2016-10-03T02:15:01.309Z,-51
2016-10-03T02:16:01.246Z,-50
2016-10-03T02:17:01.328Z,-50
2016-10-03T02:18:01.255Z,-49
2016-10-03T02:19:01.232Z,-49
2016-10-03T02:20:01.270Z,-49
2016-10-03T02:21:01.260Z,-49
2016-10-03T02:22:01.338Z,-49
2016-10-03T02:23:01.307Z,-49
2016-10-03T02:24:01.302Z,-49
2016-10-03T02:25:01.302Z,-49
2016-10-03T02:26:01.241Z,-48
2016-10-03T02:27:01.244Z,-49
2016-10-03T02:28:01.278Z,-49
2016-10-03T02:29:01.230Z,-48
2016-10-03T02:30:01.228Z,-49
2016-10-03T02:31:01.228Z,-49
2016-10-03T02:32:01.280Z,-48
2016-10-03T02:33:01.210Z,-49
2016-10-03T02:34:01.271Z,-48
2016-10-03T02:35:01.269Z,-48
2016-10-03T02:36:01.241Z,-50
2016-10-03T02:37:01.241Z,-51
2016-10-03T02:38:01.225Z,-51
2016-10-03T02:39:01.245Z,-50
2016-10-03T02:40:01.240Z,-50
2016-10-03T02:41:01.213Z,-49
2016-10-03T02:42:01.252Z,-51
2016-10-03T02:43:01.227Z,-49
2016-10-03T02:44:01.234Z,-51
2016-10-03T02:45:01.244Z,-51
2016-10-03T02:46:01.252Z,-50
2016-10-03T02:47:01.234Z,-50
2016-10-03T02:48:01.277Z,-51
2016-10-03T02:49:01.230Z,-50
2016-10-03T02:50:01.263Z,-51
2016-10-03T02:51:01.251Z,-51
2016-10-03T02:52:01.278Z,-51
2016-10-03T02:53:01.245Z,-51
2016-10-03T02:54:01.278Z,-52
2016-10-03T02:55:01.269Z,-52
2016-10-03T02:56:01.260Z,-50
2016-10-03T02:57:01.276Z,-49
2016-10-03T02:58:01.263Z,-51
2016-10-03T02:59:01.263Z,-50
2016-10-03T03:00:01.259Z,-52
2016-10-03T03:01:01.284Z,-51
2016-10-03T03:02:01.364Z,-52
2016-10-03T03:03:01.267Z,-51
2016-10-03T03:04:01.260Z,-50
2016-10-03T03:05:01.276Z,-51
2016-10-03T03:06:01.255Z,-50
2016-10-03T03:07:01.272Z,-49
2016-10-03T03:08:01.233Z,-51
2016-10-03T03:09:01.275Z,-51
2016-10-03T03:10:01.275Z,-51
2016-10-03T03:11:01.312Z,-51
2016-10-03T03:12:01.348Z,-50
2016-10-03T03:13:01.287Z,-50
2016-10-03T03:14:01.267Z,-51
2016-10-03T03:15:01.272Z,-51
2016-10-03T03:16:01.249Z,-48
2016-10-03T03:17:01.314Z,-52
2016-10-03T03:18:01.344Z,-51
2016-10-03T03:19:01.282Z,-50
2016-10-03T03:20:01.283Z,-52
2016-10-03T03:21:01.264Z,-49
2016-10-03T03:22:01.287Z,-52
2016-10-03T03:23:01.309Z,-50
2016-10-03T03:24:01.297Z,-48
2016-10-03T03:25:01.292Z,-49
2016-10-03T03:26:01.276Z,-48
2016-10-03T03:27:01.308Z,-47
2016-10-03T03:28:01.277Z,-48
2016-10-03T03:29:01.271Z,-48
2016-10-03T03:30:01.285Z,-50
2016-10-03T03:31:01.290Z,-50
2016-10-03T03:32:01.341Z,-49
2016-10-03T03:33:01.283Z,-49
2016-10-03T03:34:01.270Z,-50
2016-10-03T03:35:01.295Z,-49
2016-10-03T03:36:01.289Z,-49
2016-10-03T03:37:01.295Z,-51
2016-10-03T03:38:01.251Z,-49
2016-10-03T03:39:01.309Z,-49
2016-10-03T03:40:01.295Z,-49
2016-10-03T03:41:01.282Z,-49
2016-10-03T03:42:01.309Z,-50
2016-10-03T03:43:01.256Z,-49
2016-10-03T03:44:01.289Z,-49
2016-10-03T03:45:01.271Z,-49
2016-10-03T03:46:01.284Z,-50
2016-10-03T03:47:01.294Z,-49
2016-10-03T03:48:01.270Z,-51
2016-10-03T03:49:01.280Z,-50
2016-10-03T03:50:01.279Z,-50
2016-10-03T03:51:01.294Z,-51
2016-10-03T03:52:01.298Z,-51
2016-10-03T03:53:01.302Z,-51
2016-10-03T03:54:01.314Z,-51
2016-10-03T03:55:01.302Z,-50
2016-10-03T03:56:01.306Z,-50
2016-10-03T03:57:01.303Z,-50
2016-10-03T03:58:01.282Z,-51
2016-10-03T03:59:01.280Z,-51
2016-10-03T04:00:01.308Z,-51
2016-10-03T04:01:01.311Z,-50
2016-10-03T04:02:01.319Z,-50
2016-10-03T04:03:01.311Z,-51
2016-10-03T04:04:01.319Z,-51
2016-10-03T04:05:01.325Z,-51
2016-10-03T04:06:01.349Z,-51
2016-10-03T04:07:01.318Z,-51
2016-10-03T04:08:01.295Z,-51
2016-10-03T04:09:01.337Z,-51
2016-10-03T04:10:01.332Z,-51
2016-10-03T04:11:01.308Z,-51
2016-10-03T04:12:01.356Z,-51
2016-10-03T04:13:01.322Z,-51
2016-10-03T04:14:01.357Z,-51
2016-10-03T04:15:01.343Z,-51
2016-10-03T04:16:01.399Z,-50
2016-10-03T04:17:01.423Z,-51
2016-10-03T04:18:01.325Z,-51
2016-10-03T04:19:01.357Z,-51
2016-10-03T04:20:01.363Z,-50
2016-10-03T04:21:01.357Z,-47
2016-10-03T04:22:01.311Z,-48
2016-10-03T04:23:01.358Z,-48
2016-10-03T04:24:01.303Z,-51
2016-10-03T04:25:01.358Z,-51
2016-10-03T04:26:01.332Z,-51
2016-10-03T04:27:01.355Z,-50
2016-10-03T04:28:01.287Z,-51
2016-10-03T04:29:01.315Z,-50
2016-10-03T04:30:01.341Z,-50
2016-10-03T04:31:01.326Z,-50
2016-10-03T04:32:01.396Z,-50
2016-10-03T04:33:01.325Z,-50
2016-10-03T04:34:01.323Z,-52
2016-10-03T04:35:01.358Z,-50
2016-10-03T04:36:01.348Z,-48
2016-10-03T04:37:01.349Z,-48
2016-10-03T04:38:01.331Z,-48
2016-10-03T04:39:01.357Z,-49
2016-10-03T04:40:01.292Z,-49
2016-10-03T04:41:01.327Z,-49
2016-10-03T04:42:01.335Z,-50
2016-10-03T04:43:01.314Z,-51
2016-10-03T04:44:01.317Z,-50
2016-10-03T04:45:01.370Z,-49
2016-10-03T04:46:01.340Z,-51
2016-10-03T04:47:01.389Z,-51
2016-10-03T04:48:01.357Z,-50
2016-10-03T04:49:01.403Z,-49
2016-10-03T04:50:01.309Z,-50
2016-10-03T04:51:01.347Z,-50
2016-10-03T04:52:01.368Z,-49
2016-10-03T04:53:01.344Z,-49
2016-10-03T04:54:01.437Z,-53
2016-10-03T04:55:01.388Z,-50
2016-10-03T04:56:01.351Z,-51
2016-10-03T04:57:01.366Z,-48
2016-10-03T04:58:01.343Z,-50
2016-10-03T04:59:01.326Z,-50
2016-10-03T05:00:01.335Z,-49
2016-10-03T05:01:01.327Z,-50
2016-10-03T05:02:01.364Z,-50
2016-10-03T05:03:01.350Z,-52
2016-10-03T05:04:01.390Z,-49
2016-10-03T05:05:01.355Z,-51
2016-10-03T05:06:01.374Z,-52
2016-10-03T05:07:01.368Z,-51
2016-10-03T05:08:01.372Z,-52
2016-10-03T05:09:01.370Z,-52
2016-10-03T05:10:01.384Z,-52
2016-10-03T05:11:01.415Z,-49
2016-10-03T05:12:01.376Z,-52
2016-10-03T05:13:01.372Z,-52
2016-10-03T05:14:01.403Z,-52
2016-10-03T05:15:01.390Z,-52
2016-10-03T05:16:01.396Z,-51
2016-10-03T05:17:01.415Z,-52
2016-10-03T05:18:01.389Z,-52
2016-10-03T05:19:01.439Z,-52
2016-10-03T05:20:01.400Z,-50
2016-10-03T05:21:01.356Z,-53
2016-10-03T05:22:01.400Z,-53
2016-10-03T05:23:01.345Z,-52
2016-10-03T05:24:01.437Z,-49
2016-10-03T05:25:01.403Z,-51
2016-10-03T05:26:01.373Z,-52
2016-10-03T05:27:01.450Z,-52
2016-10-03T05:28:01.376Z,-49
2016-10-03T05:29:01.424Z,-52
2016-10-03T05:30:01.400Z,-52
2016-10-03T05:31:01.415Z,-51
2016-10-03T05:32:01.504Z,-52
2016-10-03T05:33:01.360Z,-53
2016-10-03T05:34:01.350Z,-52
2016-10-03T05:35:01.405Z,-52
2016-10-03T05:36:01.369Z,-49
2016-10-03T05:37:01.396Z,-50
2016-10-03T05:38:01.364Z,-50
2016-10-03T05:39:01.422Z,-51
2016-10-03T05:40:01.429Z,-49
2016-10-03T05:41:01.435Z,-51
2016-10-03T05:42:01.521Z,-52
2016-10-03T05:43:01.501Z,-51
2016-10-03T05:44:01.431Z,-52
2016-10-03T05:45:01.476Z,-51
2016-10-03T05:46:01.465Z,-51
2016-10-03T05:47:01.497Z,-50
2016-10-03T05:48:01.420Z,-51
2016-10-03T05:49:01.427Z,-51
2016-10-03T05:50:02.030Z,-52
2016-10-03T05:51:01.385Z,-50
2016-10-03T05:52:01.435Z,-50
2016-10-03T05:53:01.381Z,-50
2016-10-03T05:54:01.518Z,-49
2016-10-03T05:55:02.448Z,-52
2016-10-03T05:56:01.490Z,-53
2016-10-03T05:57:01.840Z,-53
2016-10-03T05:58:01.880Z,-51
2016-10-03T05:59:01.906Z,-51
2016-10-03T06:00:01.589Z,-48
2016-10-03T06:01:01.858Z,-48
2016-10-03T06:02:01.803Z,-50
2016-10-03T06:03:01.556Z,-51
2016-10-03T06:04:01.439Z,-51
2016-10-03T06:05:02.503Z,-53
2016-10-03T06:06:01.400Z,-51
2016-10-03T06:07:01.435Z,-50
2016-10-03T06:08:01.590Z,-49
2016-10-03T06:09:01.645Z,-51
2016-10-03T06:10:01.390Z,-51
2016-10-03T06:11:01.399Z,-50
2016-10-03T06:12:01.433Z,-50
2016-10-03T06:13:01.372Z,-51
2016-10-03T06:14:01.359Z,-49
2016-10-03T06:15:01.449Z,-53
2016-10-03T06:16:01.389Z,-50
2016-10-03T06:17:01.443Z,-51
2016-10-03T06:18:01.412Z,-50
2016-10-03T06:19:01.407Z,-50
2016-10-03T06:20:01.378Z,-52
2016-10-03T06:21:01.376Z,-49
2016-10-03T06:22:01.407Z,-51
2016-10-03T06:23:01.361Z,-51
2016-10-03T06:24:01.366Z,-51
2016-10-03T06:25:01.404Z,-49
2016-10-03T06:26:01.388Z,-50
2016-10-03T06:27:01.397Z,-50
2016-10-03T06:28:01.365Z,-52
2016-10-03T06:29:01.417Z,-49
2016-10-03T06:30:01.368Z,-49
2016-10-03T06:31:01.404Z,-50
2016-10-03T06:32:01.423Z,-51
2016-10-03T06:33:01.421Z,-51
2016-10-03T06:34:01.370Z,-52
2016-10-03T06:35:01.414Z,-51
2016-10-03T06:36:01.412Z,-50
2016-10-03T06:37:01.435Z,-50
2016-10-03T06:38:01.461Z,-50
2016-10-03T06:39:01.414Z,-51
2016-10-03T06:40:01.442Z,-51
2016-10-03T06:41:01.441Z,-50
2016-10-03T06:42:01.429Z,-49
2016-10-03T06:43:01.401Z,-49
2016-10-03T06:44:01.470Z,-48
2016-10-03T06:45:01.440Z,-50
2016-10-03T06:46:01.453Z,-50
2016-10-03T06:47:01.476Z,-50
2016-10-03T06:48:01.472Z,-50
2016-10-03T06:49:01.446Z,-50
2016-10-03T06:50:01.448Z,-49
2016-10-03T06:51:01.503Z,-49
2016-10-03T06:52:02.481Z,-51
2016-10-03T06:53:01.450Z,-51
2016-10-03T06:54:01.489Z,-51
2016-10-03T06:55:01.529Z,-51
2016-10-03T06:56:01.475Z,-52
2016-10-03T06:57:01.577Z,-52
2016-10-03T06:58:01.503Z,-52
2016-10-03T06:59:01.507Z,-52
2016-10-03T07:00:01.488Z,-50
2016-10-03T07:01:01.549Z,-49
2016-10-03T07:02:01.477Z,-49
2016-10-03T07:03:01.468Z,-51
2016-10-03T07:04:01.522Z,-50
2016-10-03T07:05:01.995Z,-52
2016-10-03T07:06:08.203Z,-50
2016-10-03T07:07:09.000Z,-52
2016-10-03T07:08:02.724Z,-53
2016-10-03T07:09:01.500Z,-52
2016-10-03T07:10:01.442Z,-50
2016-10-03T07:11:01.484Z,-48
2016-10-03T07:12:01.545Z,-51
2016-10-03T07:13:01.480Z,-50
2016-10-03T07:14:01.552Z,-51
2016-10-03T07:15:01.557Z,-49
2016-10-03T07:16:01.492Z,-51
2016-10-03T07:17:01.605Z,-51
2016-10-03T07:18:01.519Z,-51
2016-10-03T07:19:01.550Z,-52
2016-10-03T07:20:01.511Z,-52
2016-10-03T07:21:01.524Z,-52
2016-10-03T07:22:01.521Z,-52
2016-10-03T07:23:01.542Z,-51
2016-10-03T07:24:15.795Z,-50
2016-10-03T07:25:13.927Z,-49
2016-10-03T07:26:15.050Z,-49
2016-10-03T07:27:06.982Z,-48
2016-10-03T07:28:09.183Z,-50
2016-10-03T07:29:15.530Z,-50
2016-10-03T07:30:16.041Z,-51
2016-10-03T07:31:13.773Z,-51
2016-10-03T07:32:16.028Z,-50
2016-10-03T07:33:17.974Z,-51
2016-10-03T07:34:16.506Z,-51
2016-10-03T07:35:16.854Z,-51
2016-10-03T07:36:16.620Z,-50
2016-10-03T07:37:16.345Z,-51
2016-10-03T07:38:16.824Z,-50
2016-10-03T07:39:18.177Z,-49
2016-10-03T07:40:17.735Z,-50
2016-10-03T07:41:17.886Z,-48
2016-10-03T07:42:17.744Z,-50
2016-10-03T07:43:17.427Z,-50
2016-10-03T07:44:08.980Z,-51
2016-10-03T07:45:15.676Z,-49
2016-10-03T07:46:16.092Z,-51
2016-10-03T07:47:14.277Z,-52
2016-10-03T07:48:15.280Z,-50
2016-10-03T07:49:02.226Z,-50
2016-10-03T07:50:17.195Z,-51
2016-10-03T07:51:11.857Z,-50
2016-10-03T07:52:02.807Z,-50
2016-10-03T07:53:01.522Z,-51
2016-10-03T07:54:01.916Z,-51
2016-10-03T07:55:01.544Z,-50
2016-10-03T07:56:01.604Z,-51
2016-10-03T07:57:01.492Z,-52
2016-10-03T07:58:01.591Z,-52
2016-10-03T07:59:01.525Z,-50
2016-10-03T08:00:01.595Z,-51
2016-10-03T08:01:01.565Z,-50
2016-10-03T08:02:01.575Z,-50
2016-10-03T08:03:01.606Z,-50
2016-10-03T08:04:01.567Z,-50
2016-10-03T08:05:01.574Z,-50
2016-10-03T08:06:01.524Z,-48
2016-10-03T08:07:01.528Z,-49
2016-10-03T08:08:01.543Z,-51
2016-10-03T08:09:01.503Z,-49
2016-10-03T08:10:01.531Z,-48
2016-10-03T08:11:01.543Z,-53
2016-10-03T08:12:01.536Z,-53
2016-10-03T08:13:01.533Z,-53
2016-10-03T08:14:01.505Z,-54
2016-10-03T08:15:01.595Z,-54
2016-10-03T08:16:01.504Z,-54
2016-10-03T08:17:01.500Z,-52
2016-10-03T08:18:01.603Z,-53
2016-10-03T08:19:01.639Z,-55
2016-10-03T08:20:01.499Z,-54
2016-10-03T08:21:02.520Z,-53
2016-10-03T08:22:01.672Z,-55
2016-10-03T08:23:01.599Z,-53
2016-10-03T08:24:01.628Z,-54
2016-10-03T08:25:01.536Z,-53
2016-10-03T08:26:03.801Z,-53
2016-10-03T08:27:01.559Z,-51
2016-10-03T08:28:01.561Z,-53
2016-10-03T08:29:02.333Z,-56
2016-10-03T08:30:01.726Z,-55
2016-10-03T08:31:01.626Z,-53
2016-10-03T08:32:01.532Z,-53
2016-10-03T08:33:01.513Z,-53
2016-10-03T08:34:01.544Z,-50
2016-10-03T08:35:01.553Z,-49
2016-10-03T08:36:01.557Z,-51
2016-10-03T08:37:01.539Z,-51
2016-10-03T08:38:01.674Z,-55
2016-10-03T08:39:01.516Z,-54
2016-10-03T08:40:01.581Z,-56
2016-10-03T08:41:01.584Z,-54
2016-10-03T08:42:01.606Z,-52
2016-10-03T08:43:01.574Z,-52
2016-10-03T08:44:03.735Z,-52
2016-10-03T08:45:02.713Z,-51
2016-10-03T08:46:01.793Z,-51
2016-10-03T08:47:01.564Z,-53
2016-10-03T08:48:01.553Z,-53
2016-10-03T08:49:01.796Z,-52
2016-10-03T08:50:01.594Z,-51
2016-10-03T08:51:01.544Z,-52
2016-10-03T08:52:01.542Z,-52
2016-10-03T08:53:01.530Z,-51
2016-10-03T08:54:01.756Z,-51
2016-10-03T08:55:01.533Z,-53
2016-10-03T08:56:01.983Z,-53
2016-10-03T08:57:02.044Z,-51
2016-10-03T08:58:01.594Z,-52
2016-10-03T08:59:01.690Z,-52
2016-10-03T09:00:01.546Z,-52
2016-10-03T09:01:01.583Z,-51
2016-10-03T09:02:01.546Z,-52
2016-10-03T09:03:01.524Z,-51
2016-10-03T09:04:01.545Z,-51
2016-10-03T09:05:01.537Z,-50
2016-10-03T09:06:01.582Z,-49
2016-10-03T09:07:01.560Z,-51
2016-10-03T09:08:02.219Z,-51
2016-10-03T09:09:19.102Z,-52
2016-10-03T09:10:23.186Z,-53
2016-10-03T09:11:01.823Z,-54
2016-10-03T09:12:13.128Z,-56
2016-10-03T09:14:45.127Z,-52
2016-10-03T09:16:42.323Z,-54
2016-10-03T09:17:10.375Z,-51
2016-10-03T09:18:06.799Z,-52
2016-10-03T09:20:24.211Z,-47
2016-10-03T09:20:35.609Z,-50
2016-10-03T09:21:36.455Z,-49
2016-10-03T09:22:37.969Z,-50
2016-10-03T09:23:37.399Z,-49
2016-10-03T09:24:51.630Z,-54
2016-10-03T09:25:36.281Z,-50
2016-10-03T09:26:34.440Z,-53
2016-10-03T09:27:34.195Z,-53
2016-10-03T09:28:34.176Z,-53
2016-10-03T09:29:34.491Z,-51
2016-10-03T09:30:34.501Z,-52
2016-10-03T09:31:34.255Z,-52
2016-10-03T09:32:34.259Z,-52
2016-10-03T09:33:34.503Z,-51
2016-10-03T09:34:34.198Z,-52
2016-10-03T09:35:35.013Z,-52
2016-10-03T09:36:34.175Z,-53
2016-10-03T09:37:34.211Z,-51
2016-10-03T09:38:35.555Z,-54
2016-10-03T09:39:34.847Z,-51
2016-10-03T09:40:34.200Z,-54
2016-10-03T09:41:34.252Z,-53
2016-10-03T09:42:34.216Z,-54
2016-10-03T09:43:34.243Z,-53
2016-10-03T09:44:34.378Z,-56
2016-10-03T09:45:34.326Z,-52
2016-10-03T09:46:34.300Z,-52
2016-10-03T09:47:35.260Z,-53
2016-10-03T09:48:34.225Z,-53
2016-10-03T09:49:34.263Z,-53
2016-10-03T09:50:34.228Z,-53
2016-10-03T09:51:34.217Z,-52
2016-10-03T09:52:34.289Z,-51
2016-10-03T09:53:34.201Z,-53
2016-10-03T09:54:34.276Z,-54
2016-10-03T09:55:37.848Z,-52
2016-10-03T09:56:34.238Z,-53
2016-10-03T09:57:34.243Z,-52
2016-10-03T09:58:34.220Z,-51
2016-10-03T09:59:49.396Z,-52
2016-10-03T10:00:46.145Z,-53
2016-10-03T10:01:48.498Z,-52
2016-10-03T10:02:48.476Z,-50
2016-10-03T10:03:49.983Z,-51
2016-10-03T10:04:34.685Z,-52
2016-10-03T10:05:34.509Z,-52
2016-10-03T10:06:34.235Z,-53
2016-10-03T10:07:34.247Z,-49
2016-10-03T10:08:34.367Z,-53
2016-10-03T10:09:34.247Z,-48
2016-10-03T10:10:34.781Z,-53
2016-10-03T10:11:34.280Z,-49
2016-10-03T10:12:34.250Z,-53
2016-10-03T10:13:34.643Z,-53
2016-10-03T10:14:34.233Z,-52
2016-10-03T10:15:34.244Z,-52
2016-10-03T10:16:34.211Z,-53
2016-10-03T10:17:34.364Z,-53
2016-10-03T10:18:34.261Z,-54
2016-10-03T10:19:34.255Z,-53
2016-10-03T10:20:34.204Z,-52
2016-10-03T10:21:34.332Z,-54
2016-10-03T10:22:34.389Z,-52
2016-10-03T10:23:34.273Z,-53
2016-10-03T10:24:34.463Z,-54
2016-10-03T10:25:34.218Z,-54
2016-10-03T10:26:34.230Z,-54
2016-10-03T10:27:34.263Z,-53
2016-10-03T10:28:34.562Z,-53
2016-10-03T10:29:34.311Z,-54
2016-10-03T10:30:34.268Z,-49
2016-10-03T10:31:34.216Z,-49
2016-10-03T10:32:34.224Z,-48
2016-10-03T10:33:34.229Z,-48
2016-10-03T10:34:34.282Z,-52
2016-10-03T10:35:34.233Z,-54
2016-10-03T10:36:34.262Z,-54
2016-10-03T10:37:34.216Z,-54
2016-10-03T10:38:34.312Z,-48
2016-10-03T10:39:34.340Z,-48
2016-10-03T10:40:34.266Z,-48
2016-10-03T10:41:34.270Z,-48
2016-10-03T10:42:34.293Z,-47
2016-10-03T10:43:34.364Z,-48
2016-10-03T10:44:34.593Z,-54
2016-10-03T10:45:34.277Z,-52
2016-10-03T10:46:34.314Z,-52
2016-10-03T10:47:34.413Z,-52
2016-10-03T10:48:34.315Z,-52
2016-10-03T10:49:34.642Z,-52
2016-10-03T10:50:34.273Z,-52
2016-10-03T10:51:34.322Z,-52
2016-10-03T10:52:34.273Z,-52
2016-10-03T10:53:34.273Z,-48
2016-10-03T10:54:34.266Z,-52
2016-10-03T10:55:34.263Z,-54
2016-10-03T10:56:34.272Z,-54
2016-10-03T10:57:35.411Z,-54
2016-10-03T10:58:34.663Z,-53
2016-10-03T10:59:34.288Z,-53
2016-10-03T11:00:34.293Z,-52
2016-10-03T11:01:34.247Z,-51
2016-10-03T11:02:34.297Z,-48
2016-10-03T11:03:34.317Z,-48
2016-10-03T11:04:34.249Z,-45
2016-10-03T11:05:34.286Z,-48
2016-10-03T11:06:34.259Z,-48
2016-10-03T11:07:34.268Z,-48
2016-10-03T11:08:34.267Z,-48
2016-10-03T11:09:34.374Z,-48
2016-10-03T11:10:34.277Z,-56
2016-10-03T11:11:34.235Z,-54
2016-10-03T11:12:34.315Z,-48
2016-10-03T11:13:34.297Z,-49
2016-10-03T11:14:34.315Z,-54
2016-10-03T11:15:34.312Z,-53
2016-10-03T11:16:34.301Z,-56
2016-10-03T11:17:34.264Z,-56
2016-10-03T11:18:34.307Z,-56
2016-10-03T11:19:34.242Z,-55
2016-10-03T11:20:34.250Z,-56
2016-10-03T11:21:34.244Z,-55
2016-10-03T11:22:34.260Z,-55
2016-10-03T11:23:34.282Z,-50
2016-10-03T11:24:34.273Z,-54
2016-10-03T11:25:34.295Z,-54
2016-10-03T11:26:45.325Z,-54
2016-10-03T11:27:49.936Z,-55
2016-10-03T11:28:34.378Z,-53
2016-10-03T11:29:40.603Z,-53
2016-10-03T11:30:45.188Z,-54
2016-10-03T11:31:34.310Z,-56
2016-10-03T11:32:34.288Z,-55
2016-10-03T11:33:34.265Z,-55
2016-10-03T11:34:34.309Z,-54
2016-10-03T11:35:34.310Z,-55
2016-10-03T11:36:34.295Z,-54
2016-10-03T11:38:34.284Z,-55
2016-10-03T11:39:34.301Z,-54
2016-10-03T11:40:34.285Z,-55
2016-10-03T11:41:34.301Z,-55
2016-10-03T11:42:34.281Z,-54
2016-10-03T11:44:34.003Z,-55
2016-10-03T11:45:02.135Z,-56
2016-10-03T11:47:00.007Z,-54
2016-10-03T11:48:22.408Z,-55
2016-10-03T11:49:43.519Z,-55
2016-10-03T11:51:01.585Z,-54
2016-10-03T11:52:25.193Z,-52
2016-10-03T11:53:49.385Z,-51
2016-10-03T11:55:13.189Z,-56
2016-10-03T11:56:33.818Z,-55
2016-10-03T11:57:54.160Z,-55
2016-10-03T11:59:14.031Z,-56
2016-10-03T12:00:36.861Z,-50
2016-10-03T12:01:59.585Z,-57
2016-10-03T12:03:22.467Z,-48
2016-10-03T12:04:45.185Z,-50
2016-10-03T12:06:09.871Z,-49
2016-10-03T12:07:26.738Z,-50
2016-10-03T12:08:47.994Z,-48
2016-10-03T12:10:10.046Z,-50
2016-10-03T12:11:30.749Z,-49
2016-10-03T12:12:55.984Z,-49
2016-10-03T12:14:16.154Z,-54
2016-10-03T12:15:34.910Z,-54
2016-10-03T12:16:34.029Z,-55
2016-10-03T12:16:45.030Z,-55
2016-10-03T12:18:31.965Z,-57
2016-10-03T12:19:57.544Z,-55
2016-10-03T12:21:20.519Z,-53
2016-10-03T12:22:43.142Z,-53
2016-10-03T12:24:03.914Z,-52
2016-10-03T12:25:26.577Z,-54
2016-10-03T12:26:28.446Z,-52
2016-10-03T12:26:38.663Z,-52
2016-10-03T12:28:50.352Z,-52
2016-10-03T12:30:17.994Z,-55
2016-10-03T12:31:43.399Z,-56
2016-10-03T12:33:11.124Z,-55
2016-10-03T12:34:33.283Z,-55
2016-10-03T12:35:53.563Z,-54
2016-10-03T12:37:14.519Z,-50
2016-10-03T12:38:35.198Z,-53
2016-10-03T12:39:58.515Z,-54
2016-10-03T12:41:16.975Z,-53
2016-10-03T12:42:27.733Z,-55
2016-10-03T12:43:35.753Z,-56
2016-10-03T12:44:36.678Z,-55
2016-10-03T12:45:33.032Z,-53
2016-10-03T12:46:47.147Z,-53
2016-10-03T12:48:05.020Z,-54
2016-10-03T12:49:18.462Z,-56
2016-10-03T12:50:28.732Z,-52
2016-10-03T12:51:38.226Z,-55
2016-10-03T12:52:47.957Z,-51
2016-10-03T12:53:59.142Z,-53
2016-10-03T12:54:44.243Z,-55
2016-10-03T12:55:09.067Z,-62
2016-10-03T12:56:10.055Z,-51
2016-10-03T12:57:09.138Z,-52
2016-10-03T12:58:09.146Z,-54
2016-10-03T12:59:09.095Z,-53
2016-10-03T13:00:09.086Z,-54
2016-10-03T13:01:09.089Z,-55
2016-10-03T13:02:09.151Z,-55
2016-10-03T13:03:09.137Z,-54
2016-10-03T13:04:09.094Z,-55
2016-10-03T13:05:09.118Z,-52
2016-10-03T13:06:09.100Z,-53
2016-10-03T13:07:09.061Z,-51
2016-10-03T13:08:09.080Z,-51
2016-10-03T13:09:09.058Z,-50
2016-10-03T13:10:09.087Z,-50
2016-10-03T13:11:09.100Z,-50
2016-10-03T13:12:09.066Z,-50
2016-10-03T13:13:09.078Z,-50
2016-10-03T13:14:09.084Z,-50
2016-10-03T13:15:09.103Z,-50
2016-10-03T13:16:09.091Z,-50
2016-10-03T13:17:09.075Z,-50
2016-10-03T13:18:09.061Z,-50
2016-10-03T13:19:09.185Z,-50
2016-10-03T13:20:09.104Z,-50
2016-10-03T13:21:09.133Z,-50
2016-10-03T13:22:09.120Z,-50
2016-10-03T13:23:09.184Z,-51
2016-10-03T13:24:09.105Z,-52
2016-10-03T13:25:09.090Z,-52
2016-10-03T13:26:09.175Z,-53
2016-10-03T13:27:09.149Z,-51
2016-10-03T13:28:09.229Z,-48
2016-10-03T13:29:09.235Z,-52
2016-10-03T13:30:09.186Z,-51
2016-10-03T13:31:09.792Z,-49
2016-10-03T13:32:09.268Z,-54
2016-10-03T13:33:09.171Z,-54
2016-10-03T13:34:09.106Z,-51
2016-10-03T13:35:09.140Z,-54
2016-10-03T13:36:09.209Z,-53
2016-10-03T13:37:09.171Z,-53
2016-10-03T13:38:09.184Z,-51
2016-10-03T13:39:09.113Z,-51
2016-10-03T13:40:09.110Z,-51
2016-10-03T13:41:09.313Z,-52
2016-10-03T13:42:09.170Z,-52
2016-10-03T13:43:09.185Z,-50
2016-10-03T13:44:09.184Z,-53
2016-10-03T13:45:09.220Z,-50
2016-10-03T13:46:09.151Z,-52
2016-10-03T13:47:09.145Z,-53
2016-10-03T13:48:09.125Z,-50
2016-10-03T13:49:09.128Z,-50
2016-10-03T13:50:09.135Z,-50
2016-10-03T13:51:09.170Z,-51
2016-10-03T13:52:09.193Z,-52
2016-10-03T13:53:09.199Z,-52
2016-10-03T13:54:09.181Z,-49
2016-10-03T13:55:09.148Z,-48
2016-10-03T13:56:09.280Z,-53
2016-10-03T13:57:09.223Z,-54
2016-10-03T13:58:09.178Z,-51
2016-10-03T13:59:09.151Z,-51
2016-10-03T14:00:09.207Z,-49
2016-10-03T14:01:09.215Z,-49
2016-10-03T14:02:09.171Z,-50
2016-10-03T14:03:09.143Z,-49
2016-10-03T14:04:09.187Z,-49
2016-10-03T14:05:09.228Z,-48